newswiretoday.com alexa rank chart, newswiretoday.com alexa rank daily changes

newswiretoday.com alexa rank chart, newswiretoday.com alexa rank daily changes

newswiretoday.com
Actual rank:
385 425

RANK HISTORY

Date Rank Diff
2017/05/27 385 425 -5 683
2017/05/26 391 108 -1 362
2017/05/25 392 470 -6 902
2017/05/24 399 372 -3 021
2017/05/23 402 393 -2 191
2017/05/22 404 584 -2 559
2017/05/21 407 143 +6 670
2017/05/20 400 473 -1 344
2017/05/19 401 817 +6 506
2017/05/18 395 311 -25 277
2017/05/17 420 588 -19 726
2017/05/16 440 314 +22 683
2017/05/15 417 631 +279
2017/05/14 417 352 +19 031
2017/05/13 398 321 +7 409
2017/05/12 390 912 +7 939
2017/05/11 382 973 -16 220
2017/05/10 399 193 -33 369
2017/05/09 432 562 +16 656
2017/05/08 415 906 +7 594
2017/05/07 408 312 +756
2017/05/06 407 556 -23 665
2017/05/05 431 221 -5 947
2017/05/04 437 168 -801
2017/05/03 437 969 -3 049
2017/05/02 441 018 +16 098
2017/05/01 424 920 +6 329
2017/04/30 418 591 -5 539
2017/04/29 424 130 -2 441
2017/04/28 426 571 -6 895
2017/04/27 433 466 +10 499
2017/04/26 422 967 -3 373
2017/04/25 426 340 +1 068
2017/04/24 425 272 +16 196
2017/04/23 409 076 -2 771
2017/04/22 411 847 +2 121
2017/04/21 409 726 -8 371
2017/04/20 418 097 -11 882
2017/04/19 429 979 -5 450
2017/04/18 435 429 +5 736
2017/04/17 429 693 +10 743
2017/04/16 418 950 -29 040
2017/04/15 447 990 +26 440
2017/04/14 421 550 -25 675
2017/04/13 447 225 +3 892
2017/04/12 443 333 -25 062
2017/04/11 468 395 +5 410
2017/04/10 462 985 +15 840
2017/04/09 447 145 -13 609
2017/04/08 460 754 +2 349
2017/04/07 458 405 -3 626
2017/04/06 462 031 +371
2017/04/05 461 660 -9 943
2017/04/04 471 603 +13 649
2017/04/03 457 954 +10 290
2017/04/02 447 664 +15 921
2017/04/01 431 743 -14 163
2017/03/31 445 906 +3 724
2017/03/30 442 182 -369
2017/03/29 442 551 -7 345
2017/03/28 449 896

WIDGET FOR YOUR SITE

DOMAINS WITH THE NEAREST RANK

Domain Rank
offerchef.com 385 420
paisarn-outlet.com 385 421
idevicetool.eu 385 422
scandlines.de 385 423
oldtimerus.com 385 424
newswiretoday.com 385 425
digibet.com 385 426
suguaru.com 385 427
kinetic-revolution.com 385 428
obamacareplans.com 385 429
zfdgg.pw 385 430

DOMAINS WITH THE NEAREST RANK BY TLD .com

Domain Rank
negahedanesh.com 385 413
ideapit.com 385 416
offerchef.com 385 420
paisarn-outlet.com 385 421
oldtimerus.com 385 424
newswiretoday.com 385 425
digibet.com 385 426
suguaru.com 385 427
kinetic-revolution.com 385 428
obamacareplans.com 385 429
ohmyjapan.com 385 433